<?xml version='1.0' encoding='UTF-8'?><gpx version="1.1" creator="JPX - https://github.com/jenetics/jpx" xmlns="http://www.topografix.com/GPX/1/1"><trk><trkseg><trkpt lat="46.3762046" lon="11.1109604"><ele>933.9999999999999</ele><time>2026-04-07T17:06:37.864Z</time></trkpt><trkpt lat="46.3761974" lon="11.1110543"><ele>934.0</ele><time>2026-04-07T17:08:41.92Z</time></trkpt><trkpt lat="46.3762117" lon="11.1111758"><ele>933.9999999999999</ele><time>2026-04-07T17:08:44.929Z</time></trkpt><trkpt lat="46.3762139" lon="11.1112826"><ele>933.9999999999999</ele><time>2026-04-07T17:08:46.919Z</time></trkpt><trkpt lat="46.3761436" lon="11.1113206"><ele>934.0</ele><time>2026-04-07T17:08:50.917Z</time></trkpt><trkpt lat="46.3761228" lon="11.1114073"><ele>933.9999999999999</ele><time>2026-04-07T17:09:33.921Z</time></trkpt><trkpt lat="46.3761903" lon="11.1114809"><ele>933.9999999999999</ele><time>2026-04-07T17:09:36.902Z</time></trkpt><trkpt lat="46.3762606" lon="11.1115174"><ele>934.0</ele><time>2026-04-07T17:09:37.908Z</time></trkpt><trkpt lat="46.3763366" lon="11.1115384"><ele>934.0000000000001</ele><time>2026-04-07T17:09:38.907Z</time></trkpt><trkpt lat="46.3764096" lon="11.1115724"><ele>934.0000000000001</ele><time>2026-04-07T17:09:39.905Z</time></trkpt><trkpt lat="46.3764828" lon="11.1116246"><ele>934.0</ele><time>2026-04-07T17:09:40.903Z</time></trkpt><trkpt lat="46.3766389" lon="11.111819"><ele>934.0</ele><time>2026-04-07T17:09:43.902Z</time></trkpt><trkpt lat="46.3766874" lon="11.1119368"><ele>935.2</ele><time>2026-04-07T17:09:44.903Z</time></trkpt><trkpt lat="46.3767564" lon="11.1120527"><ele>936.4000000000001</ele><time>2026-04-07T17:09:45.896Z</time></trkpt><trkpt lat="46.3768334" lon="11.1121617"><ele>937.6</ele><time>2026-04-07T17:09:46.933Z</time></trkpt><trkpt lat="46.3769242" lon="11.1122437"><ele>938.8</ele><time>2026-04-07T17:09:47.903Z</time></trkpt><trkpt lat="46.3770223" lon="11.1123164"><ele>940.0</ele><time>2026-04-07T17:09:48.901Z</time></trkpt><trkpt lat="46.3771339" lon="11.1123765"><ele>942.0</ele><time>2026-04-07T17:09:49.902Z</time></trkpt><trkpt lat="46.3772497" lon="11.1124456"><ele>944.0</ele><time>2026-04-07T17:09:50.901Z</time></trkpt><trkpt lat="46.3773446" lon="11.1125357"><ele>946.0</ele><time>2026-04-07T17:09:51.897Z</time></trkpt><trkpt lat="46.3774309" lon="11.1126442"><ele>948.0</ele><time>2026-04-07T17:09:52.898Z</time></trkpt><trkpt lat="46.3775152" lon="11.1127499"><ele>948.0</ele><time>2026-04-07T17:09:53.898Z</time></trkpt><trkpt lat="46.3776044" lon="11.1128651"><ele>948.0</ele><time>2026-04-07T17:09:54.898Z</time></trkpt><trkpt lat="46.3777604" lon="11.113101"><ele>948.0</ele><time>2026-04-07T17:09:56.889Z</time></trkpt><trkpt lat="46.3778313" lon="11.1132159"><ele>947.5</ele><time>2026-04-07T17:09:57.892Z</time></trkpt><trkpt lat="46.3779053" lon="11.1133541"><ele>947.0</ele><time>2026-04-07T17:09:58.888Z</time></trkpt><trkpt lat="46.3779845" lon="11.1134993"><ele>946.5</ele><time>2026-04-07T17:09:59.884Z</time></trkpt><trkpt lat="46.3780622" lon="11.1136391"><ele>946.0</ele><time>2026-04-07T17:10:00.875Z</time></trkpt><trkpt lat="46.3781151" lon="11.1137365"><ele>947.5999999999999</ele><time>2026-04-07T17:10:01.878Z</time></trkpt><trkpt lat="46.378184" lon="11.1138268"><ele>949.1999999999999</ele><time>2026-04-07T17:10:02.892Z</time></trkpt><trkpt lat="46.3782527" lon="11.1139091"><ele>950.8000000000001</ele><time>2026-04-07T17:10:03.891Z</time></trkpt><trkpt lat="46.3783306" lon="11.1139879"><ele>952.4000000000001</ele><time>2026-04-07T17:10:04.881Z</time></trkpt><trkpt lat="46.3784168" lon="11.1140543"><ele>954.0</ele><time>2026-04-07T17:10:05.893Z</time></trkpt><trkpt lat="46.3785126" lon="11.1141191"><ele>954.0</ele><time>2026-04-07T17:10:06.892Z</time></trkpt><trkpt lat="46.3786411" lon="11.1141837"><ele>954.0</ele><time>2026-04-07T17:10:07.894Z</time></trkpt><trkpt lat="46.378767" lon="11.114242"><ele>954.0</ele><time>2026-04-07T17:10:08.889Z</time></trkpt><trkpt lat="46.3788965" lon="11.1142984"><ele>954.0</ele><time>2026-04-07T17:10:09.893Z</time></trkpt><trkpt lat="46.3790228" lon="11.114359"><ele>954.0</ele><time>2026-04-07T17:10:10.895Z</time></trkpt><trkpt lat="46.3791541" lon="11.1144266"><ele>954.0</ele><time>2026-04-07T17:10:11.886Z</time></trkpt><trkpt lat="46.3792776" lon="11.1144906"><ele>954.0</ele><time>2026-04-07T17:10:12.884Z</time></trkpt><trkpt lat="46.3793847" lon="11.114547"><ele>954.0</ele><time>2026-04-07T17:10:13.886Z</time></trkpt><trkpt lat="46.3794721" lon="11.1146042"><ele>954.0</ele><time>2026-04-07T17:10:14.885Z</time></trkpt><trkpt lat="46.3795451" lon="11.1146528"><ele>954.0000000000001</ele><time>2026-04-07T17:10:15.889Z</time></trkpt><trkpt lat="46.3796799" lon="11.1148064"><ele>954.0000000000001</ele><time>2026-04-07T17:10:18.886Z</time></trkpt><trkpt lat="46.3797482" lon="11.1149289"><ele>954.0</ele><time>2026-04-07T17:10:20.894Z</time></trkpt><trkpt lat="46.3797606" lon="11.1150229"><ele>954.0</ele><time>2026-04-07T17:10:21.886Z</time></trkpt><trkpt lat="46.3797813" lon="11.1151449"><ele>953.25</ele><time>2026-04-07T17:10:22.894Z</time></trkpt><trkpt lat="46.3798264" lon="11.1152732"><ele>952.5</ele><time>2026-04-07T17:10:23.886Z</time></trkpt><trkpt lat="46.3798941" lon="11.1154109"><ele>951.75</ele><time>2026-04-07T17:10:24.891Z</time></trkpt><trkpt lat="46.3799845" lon="11.1155296"><ele>951.0</ele><time>2026-04-07T17:10:25.893Z</time></trkpt><trkpt lat="46.3800739" lon="11.1156449"><ele>951.0</ele><time>2026-04-07T17:10:26.894Z</time></trkpt><trkpt lat="46.3801556" lon="11.1157416"><ele>950.9999999999999</ele><time>2026-04-07T17:10:27.895Z</time></trkpt><trkpt lat="46.3802405" lon="11.1158164"><ele>950.9999999999999</ele><time>2026-04-07T17:10:28.884Z</time></trkpt><trkpt lat="46.3803209" lon="11.1158692"><ele>951.0</ele><time>2026-04-07T17:10:29.88Z</time></trkpt><trkpt lat="46.3804184" lon="11.1159344"><ele>951.0</ele><time>2026-04-07T17:10:30.879Z</time></trkpt><trkpt lat="46.3805313" lon="11.1160127"><ele>951.0</ele><time>2026-04-07T17:10:31.884Z</time></trkpt><trkpt lat="46.3806394" lon="11.1160705"><ele>951.0</ele><time>2026-04-07T17:10:32.874Z</time></trkpt><trkpt lat="46.380749" lon="11.1161243"><ele>951.0</ele><time>2026-04-07T17:10:33.886Z</time></trkpt><trkpt lat="46.3808521" lon="11.1161761"><ele>951.0</ele><time>2026-04-07T17:10:34.887Z</time></trkpt><trkpt lat="46.3809605" lon="11.1162329"><ele>951.0</ele><time>2026-04-07T17:10:35.885Z</time></trkpt><trkpt lat="46.381067" lon="11.1163055"><ele>951.0</ele><time>2026-04-07T17:10:36.887Z</time></trkpt><trkpt lat="46.3812986" lon="11.1164413"><ele>951.0</ele><time>2026-04-07T17:10:38.888Z</time></trkpt><trkpt lat="46.3814042" lon="11.1165092"><ele>950.5999999999999</ele><time>2026-04-07T17:10:39.898Z</time></trkpt><trkpt lat="46.3814898" lon="11.1165697"><ele>950.1999999999999</ele><time>2026-04-07T17:10:40.891Z</time></trkpt><trkpt lat="46.3815832" lon="11.1166181"><ele>949.8000000000001</ele><time>2026-04-07T17:10:41.89Z</time></trkpt><trkpt lat="46.3816733" lon="11.116663"><ele>949.4000000000001</ele><time>2026-04-07T17:10:42.899Z</time></trkpt><trkpt lat="46.3817813" lon="11.1167193"><ele>949.0</ele><time>2026-04-07T17:10:43.894Z</time></trkpt><trkpt lat="46.3818913" lon="11.1167876"><ele>949.0</ele><time>2026-04-07T17:10:44.901Z</time></trkpt><trkpt lat="46.3820009" lon="11.1168527"><ele>949.0</ele><time>2026-04-07T17:10:45.898Z</time></trkpt><trkpt lat="46.382113" lon="11.1169293"><ele>949.0</ele><time>2026-04-07T17:10:46.9Z</time></trkpt><trkpt lat="46.3822342" lon="11.1170201"><ele>949.0</ele><time>2026-04-07T17:10:47.917Z</time></trkpt><trkpt lat="46.3823554" lon="11.117116"><ele>949.25</ele><time>2026-04-07T17:10:48.897Z</time></trkpt><trkpt lat="46.3824769" lon="11.1172091"><ele>949.5</ele><time>2026-04-07T17:10:49.899Z</time></trkpt><trkpt lat="46.3825922" lon="11.1173011"><ele>949.75</ele><time>2026-04-07T17:10:50.893Z</time></trkpt><trkpt lat="46.3827097" lon="11.1174047"><ele>950.0</ele><time>2026-04-07T17:10:51.897Z</time></trkpt><trkpt lat="46.3828346" lon="11.11749"><ele>950.25</ele><time>2026-04-07T17:10:52.903Z</time></trkpt><trkpt lat="46.3829529" lon="11.1175873"><ele>950.5</ele><time>2026-04-07T17:10:53.893Z</time></trkpt><trkpt lat="46.3830926" lon="11.117651"><ele>950.75</ele><time>2026-04-07T17:10:54.889Z</time></trkpt><trkpt lat="46.3832391" lon="11.1177244"><ele>951.0</ele><time>2026-04-07T17:10:55.89Z</time></trkpt><trkpt lat="46.3833925" lon="11.1177897"><ele>948.3333333333333</ele><time>2026-04-07T17:10:56.904Z</time></trkpt><trkpt lat="46.3835121" lon="11.1178527"><ele>945.6666666666666</ele><time>2026-04-07T17:10:57.902Z</time></trkpt><trkpt lat="46.3837768" lon="11.1179863"><ele>943.0</ele><time>2026-04-07T17:10:59.899Z</time></trkpt><trkpt lat="46.3839003" lon="11.118051"><ele>943.3333333333333</ele><time>2026-04-07T17:11:00.894Z</time></trkpt><trkpt lat="46.3840347" lon="11.1180925"><ele>943.6666666666667</ele><time>2026-04-07T17:11:01.895Z</time></trkpt><trkpt lat="46.3841845" lon="11.1181458"><ele>944.0</ele><time>2026-04-07T17:11:02.903Z</time></trkpt><trkpt lat="46.3843333" lon="11.118252"><ele>944.0</ele><time>2026-04-07T17:11:03.899Z</time></trkpt><trkpt lat="46.3844724" lon="11.1183766"><ele>944.0</ele><time>2026-04-07T17:11:04.897Z</time></trkpt><trkpt lat="46.3845936" lon="11.1184779"><ele>944.0</ele><time>2026-04-07T17:11:05.901Z</time></trkpt><trkpt lat="46.3847152" lon="11.1185692"><ele>944.0</ele><time>2026-04-07T17:11:06.905Z</time></trkpt><trkpt lat="46.3848239" lon="11.1186297"><ele>941.75</ele><time>2026-04-07T17:11:07.906Z</time></trkpt><trkpt lat="46.3849382" lon="11.1186843"><ele>939.5</ele><time>2026-04-07T17:11:08.899Z</time></trkpt><trkpt lat="46.385065" lon="11.1187741"><ele>937.25</ele><time>2026-04-07T17:11:09.903Z</time></trkpt><trkpt lat="46.3851846" lon="11.1188583"><ele>935.0</ele><time>2026-04-07T17:11:10.904Z</time></trkpt><trkpt lat="46.3853232" lon="11.1189594"><ele>935.0</ele><time>2026-04-07T17:11:11.91Z</time></trkpt><trkpt lat="46.3854643" lon="11.1190478"><ele>935.0</ele><time>2026-04-07T17:11:12.908Z</time></trkpt><trkpt lat="46.3855691" lon="11.1191175"><ele>935.0</ele><time>2026-04-07T17:11:13.905Z</time></trkpt><trkpt lat="46.3856472" lon="11.1191605"><ele>935.0</ele><time>2026-04-07T17:11:14.905Z</time></trkpt><trkpt lat="46.385703" lon="11.119212"><ele>935.0</ele><time>2026-04-07T17:11:15.912Z</time></trkpt><trkpt lat="46.3857407" lon="11.1192957"><ele>934.5</ele><time>2026-04-07T17:11:16.92Z</time></trkpt><trkpt lat="46.3858108" lon="11.1194086"><ele>934.0</ele><time>2026-04-07T17:11:17.918Z</time></trkpt><trkpt lat="46.3858702" lon="11.1194973"><ele>933.5</ele><time>2026-04-07T17:11:18.946Z</time></trkpt><trkpt lat="46.3859812" lon="11.1197606"><ele>933.0</ele><time>2026-04-07T17:11:20.909Z</time></trkpt><trkpt lat="46.3860233" lon="11.1198992"><ele>932.4</ele><time>2026-04-07T17:11:21.912Z</time></trkpt><trkpt lat="46.3860815" lon="11.1200218"><ele>931.8</ele><time>2026-04-07T17:11:22.919Z</time></trkpt><trkpt lat="46.3861417" lon="11.1200972"><ele>931.2</ele><time>2026-04-07T17:11:23.906Z</time></trkpt><trkpt lat="46.3862172" lon="11.1201292"><ele>930.6</ele><time>2026-04-07T17:11:24.923Z</time></trkpt><trkpt lat="46.3863073" lon="11.120096"><ele>930.0</ele><time>2026-04-07T17:11:25.921Z</time></trkpt><trkpt lat="46.3864008" lon="11.1200127"><ele>930.0</ele><time>2026-04-07T17:11:26.917Z</time></trkpt><trkpt lat="46.3864852" lon="11.1199518"><ele>930.0</ele><time>2026-04-07T17:11:27.902Z</time></trkpt><trkpt lat="46.3865763" lon="11.1199357"><ele>930.0</ele><time>2026-04-07T17:11:28.93Z</time></trkpt><trkpt lat="46.3866792" lon="11.1200022"><ele>930.0</ele><time>2026-04-07T17:11:29.915Z</time></trkpt><trkpt lat="46.3867701" lon="11.1201048"><ele>930.0</ele><time>2026-04-07T17:11:30.916Z</time></trkpt><trkpt lat="46.3868702" lon="11.1201978"><ele>930.0</ele><time>2026-04-07T17:11:31.922Z</time></trkpt><trkpt lat="46.3869626" lon="11.1202692"><ele>930.0</ele><time>2026-04-07T17:11:32.921Z</time></trkpt><trkpt lat="46.3870612" lon="11.1203434"><ele>930.0</ele><time>2026-04-07T17:11:33.924Z</time></trkpt><trkpt lat="46.3871567" lon="11.1204053"><ele>930.0</ele><time>2026-04-07T17:11:34.924Z</time></trkpt><trkpt lat="46.3872558" lon="11.1204528"><ele>930.0</ele><time>2026-04-07T17:11:35.926Z</time></trkpt><trkpt lat="46.3873607" lon="11.1204423"><ele>930.75</ele><time>2026-04-07T17:11:36.927Z</time></trkpt><trkpt lat="46.3874732" lon="11.1203776"><ele>931.5</ele><time>2026-04-07T17:11:37.926Z</time></trkpt><trkpt lat="46.3875724" lon="11.1202629"><ele>932.25</ele><time>2026-04-07T17:11:38.917Z</time></trkpt><trkpt lat="46.387667" lon="11.1201545"><ele>933.0</ele><time>2026-04-07T17:11:39.925Z</time></trkpt><trkpt lat="46.3878642" lon="11.1199558"><ele>934.5</ele><time>2026-04-07T17:11:41.918Z</time></trkpt><trkpt lat="46.3879694" lon="11.1198886"><ele>936.0</ele><time>2026-04-07T17:11:42.915Z</time></trkpt><trkpt lat="46.3880785" lon="11.1198485"><ele>937.5</ele><time>2026-04-07T17:11:43.926Z</time></trkpt><trkpt lat="46.3882011" lon="11.119826"><ele>939.0</ele><time>2026-04-07T17:11:44.92Z</time></trkpt><trkpt lat="46.3883284" lon="11.1198031"><ele>940.5</ele><time>2026-04-07T17:11:45.918Z</time></trkpt><trkpt lat="46.388457" lon="11.1198028"><ele>942.0</ele><time>2026-04-07T17:11:46.922Z</time></trkpt><trkpt lat="46.3885869" lon="11.1197906"><ele>943.5</ele><time>2026-04-07T17:11:47.933Z</time></trkpt><trkpt lat="46.3887255" lon="11.1197719"><ele>945.0</ele><time>2026-04-07T17:11:48.932Z</time></trkpt><trkpt lat="46.3888649" lon="11.1197447"><ele>946.0</ele><time>2026-04-07T17:11:49.954Z</time></trkpt><trkpt lat="46.3889939" lon="11.11972"><ele>947.0</ele><time>2026-04-07T17:11:50.94Z</time></trkpt><trkpt lat="46.3891158" lon="11.1197037"><ele>948.0</ele><time>2026-04-07T17:11:51.938Z</time></trkpt><trkpt lat="46.3892486" lon="11.1196776"><ele>949.0</ele><time>2026-04-07T17:11:52.939Z</time></trkpt><trkpt lat="46.3893814" lon="11.11968"><ele>949.0</ele><time>2026-04-07T17:11:53.933Z</time></trkpt><trkpt lat="46.3895207" lon="11.1196719"><ele>949.0</ele><time>2026-04-07T17:11:54.937Z</time></trkpt><trkpt lat="46.3896589" lon="11.1196561"><ele>949.0</ele><time>2026-04-07T17:11:55.938Z</time></trkpt><trkpt lat="46.3897877" lon="11.1196618"><ele>949.0</ele><time>2026-04-07T17:11:56.943Z</time></trkpt><trkpt lat="46.3898942" lon="11.119664"><ele>950.75</ele><time>2026-04-07T17:11:57.941Z</time></trkpt><trkpt lat="46.3899902" lon="11.1196805"><ele>952.5</ele><time>2026-04-07T17:11:58.932Z</time></trkpt><trkpt lat="46.3900888" lon="11.1197139"><ele>954.25</ele><time>2026-04-07T17:11:59.927Z</time></trkpt><trkpt lat="46.3901907" lon="11.1197476"><ele>956.0</ele><time>2026-04-07T17:12:00.927Z</time></trkpt><trkpt lat="46.3904081" lon="11.1198273"><ele>956.0000000000001</ele><time>2026-04-07T17:12:02.926Z</time></trkpt><trkpt lat="46.3904878" lon="11.1198635"><ele>956.0</ele><time>2026-04-07T17:12:03.926Z</time></trkpt><trkpt lat="46.3905709" lon="11.1198989"><ele>956.0</ele><time>2026-04-07T17:12:04.938Z</time></trkpt><trkpt lat="46.3906366" lon="11.1199288"><ele>956.0</ele><time>2026-04-07T17:12:05.933Z</time></trkpt><trkpt lat="46.3907007" lon="11.1199594"><ele>956.0000000000001</ele><time>2026-04-07T17:12:06.934Z</time></trkpt><trkpt lat="46.390773" lon="11.1199819"><ele>956.0</ele><time>2026-04-07T17:12:07.934Z</time></trkpt><trkpt lat="46.3908532" lon="11.1199978"><ele>956.1999999999999</ele><time>2026-04-07T17:12:08.933Z</time></trkpt><trkpt lat="46.3909227" lon="11.1200077"><ele>956.3999999999999</ele><time>2026-04-07T17:12:09.942Z</time></trkpt><trkpt lat="46.3909949" lon="11.1200061"><ele>956.6</ele><time>2026-04-07T17:12:10.928Z</time></trkpt><trkpt lat="46.391086" lon="11.1200007"><ele>956.8</ele><time>2026-04-07T17:12:11.922Z</time></trkpt><trkpt lat="46.3912034" lon="11.1199832"><ele>957.0</ele><time>2026-04-07T17:12:12.931Z</time></trkpt><trkpt lat="46.3913245" lon="11.1199728"><ele>957.1666666666666</ele><time>2026-04-07T17:12:13.934Z</time></trkpt><trkpt lat="46.3914254" lon="11.1199548"><ele>957.3333333333333</ele><time>2026-04-07T17:12:14.923Z</time></trkpt><trkpt lat="46.3915135" lon="11.1199327"><ele>957.5</ele><time>2026-04-07T17:12:15.929Z</time></trkpt><trkpt lat="46.3915892" lon="11.119907"><ele>957.6666666666666</ele><time>2026-04-07T17:12:16.921Z</time></trkpt><trkpt lat="46.3916562" lon="11.1198823"><ele>957.8333333333333</ele><time>2026-04-07T17:12:17.93Z</time></trkpt><trkpt lat="46.3917304" lon="11.119868"><ele>958.0</ele><time>2026-04-07T17:12:18.924Z</time></trkpt><trkpt lat="46.39181" lon="11.1198622"><ele>958.0</ele><time>2026-04-07T17:12:19.928Z</time></trkpt><trkpt lat="46.3918882" lon="11.1198558"><ele>958.0</ele><time>2026-04-07T17:12:20.942Z</time></trkpt><trkpt lat="46.39196" lon="11.1198614"><ele>958.0</ele><time>2026-04-07T17:12:21.934Z</time></trkpt><trkpt lat="46.3921121" lon="11.119907"><ele>958.0</ele><time>2026-04-07T17:12:23.939Z</time></trkpt><trkpt lat="46.3922376" lon="11.1199865"><ele>958.0</ele><time>2026-04-07T17:12:25.935Z</time></trkpt><trkpt lat="46.3923136" lon="11.1200542"><ele>958.0</ele><time>2026-04-07T17:12:26.931Z</time></trkpt><trkpt lat="46.3924027" lon="11.1201406"><ele>958.0</ele><time>2026-04-07T17:12:27.92Z</time></trkpt><trkpt lat="46.3925034" lon="11.1202201"><ele>958.0</ele><time>2026-04-07T17:12:28.926Z</time></trkpt><trkpt lat="46.3926004" lon="11.1203009"><ele>958.0</ele><time>2026-04-07T17:12:29.93Z</time></trkpt><trkpt lat="46.3926953" lon="11.1203552"><ele>958.0</ele><time>2026-04-07T17:12:30.918Z</time></trkpt><trkpt lat="46.3927938" lon="11.1203974"><ele>958.0</ele><time>2026-04-07T17:12:31.922Z</time></trkpt><trkpt lat="46.3928907" lon="11.1204576"><ele>958.0</ele><time>2026-04-07T17:12:32.92Z</time></trkpt><trkpt lat="46.3929843" lon="11.1205432"><ele>958.0</ele><time>2026-04-07T17:12:33.917Z</time></trkpt><trkpt lat="46.3930756" lon="11.1206544"><ele>958.0</ele><time>2026-04-07T17:12:34.919Z</time></trkpt><trkpt lat="46.3931676" lon="11.1207348"><ele>958.0</ele><time>2026-04-07T17:12:35.918Z</time></trkpt><trkpt lat="46.3932602" lon="11.1208185"><ele>958.8</ele><time>2026-04-07T17:12:36.914Z</time></trkpt><trkpt lat="46.393341" lon="11.1209052"><ele>959.5999999999999</ele><time>2026-04-07T17:12:37.909Z</time></trkpt><trkpt lat="46.3933968" lon="11.1210271"><ele>960.4000000000001</ele><time>2026-04-07T17:12:38.915Z</time></trkpt><trkpt lat="46.3934698" lon="11.1211526"><ele>961.2</ele><time>2026-04-07T17:12:39.918Z</time></trkpt><trkpt lat="46.3935687" lon="11.1212364"><ele>962.0</ele><time>2026-04-07T17:12:40.915Z</time></trkpt><trkpt lat="46.3936729" lon="11.1213256"><ele>962.0</ele><time>2026-04-07T17:12:41.923Z</time></trkpt><trkpt lat="46.3937712" lon="11.1214005"><ele>962.0</ele><time>2026-04-07T17:12:42.925Z</time></trkpt><trkpt lat="46.3940059" lon="11.1215712"><ele>962.0</ele><time>2026-04-07T17:12:44.924Z</time></trkpt><trkpt lat="46.3941298" lon="11.1216543"><ele>961.5</ele><time>2026-04-07T17:12:45.924Z</time></trkpt><trkpt lat="46.3942599" lon="11.1217166"><ele>961.0</ele><time>2026-04-07T17:12:46.923Z</time></trkpt><trkpt lat="46.3943865" lon="11.121767"><ele>960.5</ele><time>2026-04-07T17:12:47.924Z</time></trkpt><trkpt lat="46.3945243" lon="11.1217856"><ele>960.0</ele><time>2026-04-07T17:12:48.928Z</time></trkpt><trkpt lat="46.3946619" lon="11.1218162"><ele>960.2</ele><time>2026-04-07T17:12:49.923Z</time></trkpt><trkpt lat="46.394759" lon="11.1218711"><ele>960.4</ele><time>2026-04-07T17:12:50.926Z</time></trkpt><trkpt lat="46.3948769" lon="11.1219075"><ele>960.5999999999999</ele><time>2026-04-07T17:12:51.939Z</time></trkpt><trkpt lat="46.3949849" lon="11.1219598"><ele>960.8</ele><time>2026-04-07T17:12:52.919Z</time></trkpt><trkpt lat="46.3950587" lon="11.1219765"><ele>961.0</ele><time>2026-04-07T17:12:53.91Z</time></trkpt><trkpt lat="46.3951384" lon="11.1219938"><ele>961.0</ele><time>2026-04-07T17:12:54.908Z</time></trkpt><trkpt lat="46.3952157" lon="11.1220113"><ele>961.0</ele><time>2026-04-07T17:12:55.904Z</time></trkpt><trkpt lat="46.3952844" lon="11.1220321"><ele>961.0</ele><time>2026-04-07T17:12:56.91Z</time></trkpt><trkpt lat="46.3953737" lon="11.1220421"><ele>961.0</ele><time>2026-04-07T17:12:58.914Z</time></trkpt><trkpt lat="46.3954468" lon="11.122031"><ele>961.0</ele><time>2026-04-07T17:13:00.911Z</time></trkpt><trkpt lat="46.395518" lon="11.1220343"><ele>957.0</ele><time>2026-04-07T17:13:07.926Z</time></trkpt></trkseg></trk></gpx>